Ravalli County (6S5)
Hamilton, MT
Field Elevation: 3642
Lat: 45°15.05N  Long: 114°07.31W
CTAF/Unicom Freq: 122.8000
   
     For Weather-by-Phone, call 406-375-9149
Weather Advisories
2016-05-06   20:34 Z
Altimeter 30.04" Hg
Wind 320° @ 17 KT
Gusts 22 KT
Visibility 10 SM
Temperature 16° C (61° F)
Dewpoint 6° C (43° F)
Relative Humidity 52%
Density Altitude --
Condensation Altitude 8,600 feet
Wind and Runways
Indicated Runway = 34
Headwind = 16 kt
Crosswind = 6 kt
History
 
 
 
More Info
NOAA Forecast
 
 
About Us
Belfort Instrument
 
 
FAA Disclaimer: The data displayed is for advisory purposes only and is not to be used for flight planning or operations. For official data, please call 406-375-9149 to hear the current automated AWOS voice message.
  METAR 6S5 062034Z AUTO 32017G22KT 10 SM 16/06 A3004